sensor_id;sensor_type;location;lat;lon;timestamp;pressure;altitude;pressure_sealevel;temperature;humidity
68508;BME280;55510;49.560;19.090;2023-04-24T00:02:17;95743.91;;;5.79;81.94
68508;BME280;55510;49.560;19.090;2023-04-24T00:05:19;95736.56;;;5.81;81.85
68508;BME280;55510;49.560;19.090;2023-04-24T00:08:20;95737.84;;;5.79;82.16
68508;BME280;55510;49.560;19.090;2023-04-24T00:11:20;95733.91;;;5.70;82.75
68508;BME280;55510;49.560;19.090;2023-04-24T00:14:21;95729.44;;;5.70;82.61
68508;BME280;55510;49.560;19.090;2023-04-24T00:17:22;95723.59;;;5.68;82.56
68508;BME280;55510;49.560;19.090;2023-04-24T00:20:23;95724.16;;;5.70;83.21
68508;BME280;55510;49.560;19.090;2023-04-24T00:23:23;95715.66;;;5.68;83.45
68508;BME280;55510;49.560;19.090;2023-04-24T00:26:24;95718.06;;;5.70;83.27
68508;BME280;55510;49.560;19.090;2023-04-24T00:29:25;95714.84;;;5.68;82.88
68508;BME280;55510;49.560;19.090;2023-04-24T00:32:25;95710.03;;;5.64;83.53
68508;BME280;55510;49.560;19.090;2023-04-24T00:35:26;95703.03;;;5.58;83.41
68508;BME280;55510;49.560;19.090;2023-04-24T00:38:27;95699.94;;;5.61;83.52
68508;BME280;55510;49.560;19.090;2023-04-24T00:41:27;95694.66;;;5.61;83.89
68508;BME280;55510;49.560;19.090;2023-04-24T00:44:28;95694.41;;;5.51;84.03
68508;BME280;55510;49.560;19.090;2023-04-24T00:47:29;95678.47;;;5.46;84.16
68508;BME280;55510;49.560;19.090;2023-04-24T00:50:30;95678.34;;;5.41;84.12
68508;BME280;55510;49.560;19.090;2023-04-24T00:53:31;95678.81;;;5.37;84.02
68508;BME280;55510;49.560;19.090;2023-04-24T00:56:32;95678.56;;;5.39;84.17
68508;BME280;55510;49.560;19.090;2023-04-24T00:59:34;95674.69;;;5.42;84.08
68508;BME280;55510;49.560;19.090;2023-04-24T01:02:34;95673.84;;;5.41;84.01
68508;BME280;55510;49.560;19.090;2023-04-24T01:05:35;95666.50;;;5.43;83.31
68508;BME280;55510;49.560;19.090;2023-04-24T01:08:36;95660.09;;;5.51;83.26
68508;BME280;55510;49.560;19.090;2023-04-24T01:11:40;95662.66;;;5.58;82.53
68508;BME280;55510;49.560;19.090;2023-04-24T01:14:42;95653.69;;;5.59;82.21
68508;BME280;55510;49.560;19.090;2023-04-24T01:17:43;95661.81;;;5.57;82.95
68508;BME280;55510;49.560;19.090;2023-04-24T01:20:45;95659.53;;;5.49;83.16
68508;BME280;55510;49.560;19.090;2023-04-24T01:23:47;95664.44;;;5.45;83.75
68508;BME280;55510;49.560;19.090;2023-04-24T01:26:48;95646.22;;;5.44;83.55
68508;BME280;55510;49.560;19.090;2023-04-24T01:29:49;95643.59;;;5.44;84.08
68508;BME280;55510;49.560;19.090;2023-04-24T01:32:52;95653.31;;;5.43;83.84
68508;BME280;55510;49.560;19.090;2023-04-24T01:35:53;95646.22;;;5.44;83.87
68508;BME280;55510;49.560;19.090;2023-04-24T01:38:54;95635.19;;;5.35;84.34
68508;BME280;55510;49.560;19.090;2023-04-24T01:41:55;95634.16;;;5.36;83.94
68508;BME280;55510;49.560;19.090;2023-04-24T01:44:56;95631.75;;;5.46;83.66
68508;BME280;55510;49.560;19.090;2023-04-24T01:47:58;95632.69;;;5.52;83.49
68508;BME280;55510;49.560;19.090;2023-04-24T01:50:59;95630.72;;;5.59;83.00
68508;BME280;55510;49.560;19.090;2023-04-24T01:54:00;95632.13;;;5.62;82.67
68508;BME280;55510;49.560;19.090;2023-04-24T01:57:00;95629.34;;;5.69;82.32
68508;BME280;55510;49.560;19.090;2023-04-24T02:00:04;95631.50;;;5.72;82.41
68508;BME280;55510;49.560;19.090;2023-04-24T02:03:06;95624.16;;;5.74;82.48
68508;BME280;55510;49.560;19.090;2023-04-24T02:06:06;95625.34;;;5.78;82.00
68508;BME280;55510;49.560;19.090;2023-04-24T02:09:07;95621.97;;;5.83;82.46
68508;BME280;55510;49.560;19.090;2023-04-24T02:12:09;95613.59;;;5.86;82.01
68508;BME280;55510;49.560;19.090;2023-04-24T02:15:10;95613.13;;;5.89;81.73
68508;BME280;55510;49.560;19.090;2023-04-24T02:18:11;95607.16;;;5.93;82.09
68508;BME280;55510;49.560;19.090;2023-04-24T02:21:13;95611.50;;;6.00;81.76
68508;BME280;55510;49.560;19.090;2023-04-24T02:24:13;95605.78;;;6.03;81.42
68508;BME280;55510;49.560;19.090;2023-04-24T02:27:14;95604.06;;;6.08;81.22
68508;BME280;55510;49.560;19.090;2023-04-24T02:30:15;95603.91;;;6.15;81.06
68508;BME280;55510;49.560;19.090;2023-04-24T02:33:16;95593.69;;;6.19;81.88
68508;BME280;55510;49.560;19.090;2023-04-24T02:36:17;95595.06;;;6.21;81.69
68508;BME280;55510;49.560;19.090;2023-04-24T02:39:17;95586.19;;;6.28;82.05
68508;BME280;55510;49.560;19.090;2023-04-24T02:42:19;95593.19;;;6.34;80.99
68508;BME280;55510;49.560;19.090;2023-04-24T02:45:19;95580.63;;;6.41;80.10
68508;BME280;55510;49.560;19.090;2023-04-24T02:48:20;95583.34;;;6.46;79.82
68508;BME280;55510;49.560;19.090;2023-04-24T02:51:21;95582.41;;;6.52;79.52
68508;BME280;55510;49.560;19.090;2023-04-24T02:54:22;95579.97;;;6.63;79.13
68508;BME280;55510;49.560;19.090;2023-04-24T02:57:22;95573.78;;;6.74;78.91
68508;BME280;55510;49.560;19.090;2023-04-24T03:00:23;95579.81;;;6.87;80.19
68508;BME280;55510;49.560;19.090;2023-04-24T03:03:23;95569.31;;;6.92;79.96
68508;BME280;55510;49.560;19.090;2023-04-24T03:06:25;95564.91;;;6.97;79.17
68508;BME280;55510;49.560;19.090;2023-04-24T03:09:27;95573.22;;;7.06;78.70
68508;BME280;55510;49.560;19.090;2023-04-24T03:12:27;95570.56;;;7.23;77.04
68508;BME280;55510;49.560;19.090;2023-04-24T03:15:28;95574.75;;;7.36;76.22
68508;BME280;55510;49.560;19.090;2023-04-24T03:18:29;95572.78;;;7.49;75.51
68508;BME280;55510;49.560;19.090;2023-04-24T03:21:30;95572.94;;;7.59;75.63
68508;BME280;55510;49.560;19.090;2023-04-24T03:24:31;95577.44;;;7.59;76.00
68508;BME280;55510;49.560;19.090;2023-04-24T03:27:31;95575.09;;;7.62;76.29
68508;BME280;55510;49.560;19.090;2023-04-24T03:30:32;95573.88;;;7.70;74.83
68508;BME280;55510;49.560;19.090;2023-04-24T03:33:33;95568.47;;;7.82;73.81
68508;BME280;55510;49.560;19.090;2023-04-24T03:36:33;95570.19;;;7.93;73.86
68508;BME280;55510;49.560;19.090;2023-04-24T03:39:34;95568.47;;;8.04;72.93
68508;BME280;55510;49.560;19.090;2023-04-24T03:42:35;95567.28;;;8.17;71.35
68508;BME280;55510;49.560;19.090;2023-04-24T03:45:35;95567.72;;;8.31;70.20
68508;BME280;55510;49.560;19.090;2023-04-24T03:48:36;95561.78;;;8.46;69.39
68508;BME280;55510;49.560;19.090;2023-04-24T03:51:36;95565.84;;;8.54;69.02
68508;BME280;55510;49.560;19.090;2023-04-24T03:54:37;95566.44;;;8.61;68.53
68508;BME280;55510;49.560;19.090;2023-04-24T03:57:40;95566.25;;;8.68;68.68
68508;BME280;55510;49.560;19.090;2023-04-24T04:00:40;95565.22;;;8.74;68.31
68508;BME280;55510;49.560;19.090;2023-04-24T04:03:41;95572.25;;;8.85;67.12
68508;BME280;55510;49.560;19.090;2023-04-24T04:06:42;95566.47;;;8.94;66.29
68508;BME280;55510;49.560;19.090;2023-04-24T04:09:44;95564.41;;;9.01;65.57
68508;BME280;55510;49.560;19.090;2023-04-24T04:12:45;95564.97;;;9.08;65.28
68508;BME280;55510;49.560;19.090;2023-04-24T04:15:46;95568.25;;;9.21;63.67
68508;BME280;55510;49.560;19.090;2023-04-24T04:18:47;95557.72;;;9.31;63.43
68508;BME280;55510;49.560;19.090;2023-04-24T04:21:47;95556.47;;;9.49;61.83
68508;BME280;55510;49.560;19.090;2023-04-24T04:24:53;95553.13;;;9.64;61.12
68508;BME280;55510;49.560;19.090;2023-04-24T04:27:54;95559.56;;;9.74;61.73
68508;BME280;55510;49.560;19.090;2023-04-24T04:30:54;95553.75;;;9.82;61.82
68508;BME280;55510;49.560;19.090;2023-04-24T04:33:55;95548.44;;;9.87;61.10
68508;BME280;55510;49.560;19.090;2023-04-24T04:36:56;95550.31;;;9.92;61.36
68508;BME280;55510;49.560;19.090;2023-04-24T04:40:00;95550.84;;;9.94;61.20
68508;BME280;55510;49.560;19.090;2023-04-24T04:43:01;95543.69;;;9.94;61.19
68508;BME280;55510;49.560;19.090;2023-04-24T04:46:01;95545.84;;;9.97;61.12
68508;BME280;55510;49.560;19.090;2023-04-24T04:49:04;95537.34;;;10.06;60.96
68508;BME280;55510;49.560;19.090;2023-04-24T04:52:04;95544.84;;;10.19;60.27
68508;BME280;55510;49.560;19.090;2023-04-24T04:55:06;95537.97;;;10.34;59.02
68508;BME280;55510;49.560;19.090;2023-04-24T04:58:06;95528.97;;;10.50;59.49
68508;BME280;55510;49.560;19.090;2023-04-24T05:01:07;95530.63;;;10.67;58.82
68508;BME280;55510;49.560;19.090;2023-04-24T05:04:08;95532.75;;;10.85;58.46
68508;BME280;55510;49.560;19.090;2023-04-24T05:07:09;95537.00;;;11.07;56.99
68508;BME280;55510;49.560;19.090;2023-04-24T05:10:10;95528.44;;;11.31;56.80
68508;BME280;55510;49.560;19.090;2023-04-24T05:13:11;95533.47;;;11.53;55.29
68508;BME280;55510;49.560;19.090;2023-04-24T05:16:11;95530.97;;;11.83;52.50
68508;BME280;55510;49.560;19.090;2023-04-24T05:19:12;95531.44;;;12.11;49.98
68508;BME280;55510;49.560;19.090;2023-04-24T05:22:14;95529.69;;;12.36;50.67
68508;BME280;55510;49.560;19.090;2023-04-24T05:25:15;95531.38;;;12.66;48.39
68508;BME280;55510;49.560;19.090;2023-04-24T05:28:15;95532.59;;;12.84;48.12
68508;BME280;55510;49.560;19.090;2023-04-24T05:31:16;95526.28;;;13.04;45.99
68508;BME280;55510;49.560;19.090;2023-04-24T05:34:18;95531.97;;;13.27;45.23
68508;BME280;55510;49.560;19.090;2023-04-24T05:37:19;95526.16;;;13.49;47.00
68508;BME280;55510;49.560;19.090;2023-04-24T05:40:19;95515.81;;;13.67;45.87
68508;BME280;55510;49.560;19.090;2023-04-24T05:43:20;95515.91;;;13.81;45.03
68508;BME280;55510;49.560;19.090;2023-04-24T05:46:21;95511.19;;;13.97;44.96
68508;BME280;55510;49.560;19.090;2023-04-24T05:49:22;95510.97;;;14.13;44.52
68508;BME280;55510;49.560;19.090;2023-04-24T05:52:22;95516.22;;;14.23;43.68
68508;BME280;55510;49.560;19.090;2023-04-24T05:55:24;95509.06;;;14.38;44.17
68508;BME280;55510;49.560;19.090;2023-04-24T05:58:25;95500.28;;;14.51;44.09
68508;BME280;55510;49.560;19.090;2023-04-24T06:01:26;95508.25;;;14.56;44.44
68508;BME280;55510;49.560;19.090;2023-04-24T06:04:27;95498.28;;;14.43;43.91
68508;BME280;55510;49.560;19.090;2023-04-24T06:07:28;95506.16;;;14.34;44.49
68508;BME280;55510;49.560;19.090;2023-04-24T06:10:28;95502.69;;;14.33;44.07
68508;BME280;55510;49.560;19.090;2023-04-24T06:13:29;95500.16;;;14.23;44.11
68508;BME280;55510;49.560;19.090;2023-04-24T06:16:30;95499.28;;;14.28;45.47
68508;BME280;55510;49.560;19.090;2023-04-24T06:19:31;95492.78;;;14.34;43.87
68508;BME280;55510;49.560;19.090;2023-04-24T06:22:32;95487.38;;;14.39;44.72
68508;BME280;55510;49.560;19.090;2023-04-24T06:25:33;95489.97;;;14.44;44.92
68508;BME280;55510;49.560;19.090;2023-04-24T06:28:34;95479.84;;;14.60;44.89
68508;BME280;55510;49.560;19.090;2023-04-24T06:31:35;95477.66;;;14.62;45.09
68508;BME280;55510;49.560;19.090;2023-04-24T06:34:37;95475.19;;;14.66;44.61
68508;BME280;55510;49.560;19.090;2023-04-24T06:37:41;95477.03;;;14.71;44.55
68508;BME280;55510;49.560;19.090;2023-04-24T06:40:42;95479.66;;;14.90;45.60
68508;BME280;55510;49.560;19.090;2023-04-24T06:43:43;95463.22;;;15.11;43.81
68508;BME280;55510;49.560;19.090;2023-04-24T06:46:45;95463.38;;;15.33;43.97
68508;BME280;55510;49.560;19.090;2023-04-24T06:49:47;95467.13;;;15.60;42.87
68508;BME280;55510;49.560;19.090;2023-04-24T06:52:47;95463.75;;;15.69;42.24
68508;BME280;55510;49.560;19.090;2023-04-24T06:55:48;95454.31;;;15.71;42.09
68508;BME280;55510;49.560;19.090;2023-04-24T06:58:49;95459.09;;;15.74;41.64
68508;BME280;55510;49.560;19.090;2023-04-24T07:01:50;95452.25;;;15.96;43.15
68508;BME280;55510;49.560;19.090;2023-04-24T07:04:54;95448.66;;;16.01;41.82
68508;BME280;55510;49.560;19.090;2023-04-24T07:07:54;95448.97;;;15.99;41.91
68508;BME280;55510;49.560;19.090;2023-04-24T07:10:55;95445.69;;;16.02;41.93
68508;BME280;55510;49.560;19.090;2023-04-24T07:13:58;95443.88;;;16.12;41.12
68508;BME280;55510;49.560;19.090;2023-04-24T07:16:59;95447.09;;;16.36;41.21
68508;BME280;55510;49.560;19.090;2023-04-24T07:20:00;95448.28;;;16.30;40.92
68508;BME280;55510;49.560;19.090;2023-04-24T07:23:02;95443.75;;;16.17;41.70
68508;BME280;55510;49.560;19.090;2023-04-24T07:26:03;95452.63;;;16.03;40.88
68508;BME280;55510;49.560;19.090;2023-04-24T07:29:04;95447.97;;;15.81;42.70
68508;BME280;55510;49.560;19.090;2023-04-24T07:32:04;95448.78;;;15.54;41.75
68508;BME280;55510;49.560;19.090;2023-04-24T07:35:06;95452.94;;;15.32;41.89
68508;BME280;55510;49.560;19.090;2023-04-24T07:38:10;95449.56;;;15.26;43.14
68508;BME280;55510;49.560;19.090;2023-04-24T07:41:14;95449.03;;;15.24;42.66
68508;BME280;55510;49.560;19.090;2023-04-24T07:44:15;95441.38;;;15.03;43.04
68508;BME280;55510;49.560;19.090;2023-04-24T07:47:16;95443.19;;;15.08;43.46
68508;BME280;55510;49.560;19.090;2023-04-24T07:50:16;95438.03;;;15.12;42.45
68508;BME280;55510;49.560;19.090;2023-04-24T07:53:22;95447.06;;;15.16;43.92
68508;BME280;55510;49.560;19.090;2023-04-24T07:56:22;95452.13;;;15.17;42.63
68508;BME280;55510;49.560;19.090;2023-04-24T07:59:23;95451.72;;;15.10;43.26
68508;BME280;55510;49.560;19.090;2023-04-24T08:02:24;95448.56;;;15.08;43.74
68508;BME280;55510;49.560;19.090;2023-04-24T08:05:27;95443.38;;;15.12;44.52
68508;BME280;55510;49.560;19.090;2023-04-24T08:08:29;95449.63;;;15.07;44.50
68508;BME280;55510;49.560;19.090;2023-04-24T08:11:29;95441.66;;;14.88;44.58
68508;BME280;55510;49.560;19.090;2023-04-24T08:14:30;95449.56;;;14.79;45.04
68508;BME280;55510;49.560;19.090;2023-04-24T08:17:31;95453.47;;;14.68;45.22
68508;BME280;55510;49.560;19.090;2023-04-24T08:20:31;95457.75;;;14.69;46.14
68508;BME280;55510;49.560;19.090;2023-04-24T08:23:32;95457.03;;;14.63;48.83
68508;BME280;55510;49.560;19.090;2023-04-24T08:26:33;95456.38;;;14.52;47.40
68508;BME280;55510;49.560;19.090;2023-04-24T08:29:33;95454.94;;;14.60;47.52
68508;BME280;55510;49.560;19.090;2023-04-24T08:32:34;95454.16;;;14.59;47.05
68508;BME280;55510;49.560;19.090;2023-04-24T08:35:35;95458.19;;;14.57;47.31
68508;BME280;55510;49.560;19.090;2023-04-24T08:38:36;95456.81;;;14.59;47.31
68508;BME280;55510;49.560;19.090;2023-04-24T08:41:37;95455.25;;;14.91;47.25
68508;BME280;55510;49.560;19.090;2023-04-24T08:44:38;95453.91;;;15.08;45.97
68508;BME280;55510;49.560;19.090;2023-04-24T08:47:40;95457.19;;;15.19;45.22
68508;BME280;55510;49.560;19.090;2023-04-24T08:50:42;95453.06;;;15.55;46.22
68508;BME280;55510;49.560;19.090;2023-04-24T08:53:43;95448.16;;;15.85;44.19
68508;BME280;55510;49.560;19.090;2023-04-24T08:56:45;95452.16;;;16.01;44.48
68508;BME280;55510;49.560;19.090;2023-04-24T08:59:47;95454.50;;;16.03;44.14
68508;BME280;55510;49.560;19.090;2023-04-24T09:02:50;95455.19;;;16.08;43.02
68508;BME280;55510;49.560;19.090;2023-04-24T09:05:52;95460.22;;;16.24;43.71
68508;BME280;55510;49.560;19.090;2023-04-24T09:08:53;95453.59;;;16.44;42.19
68508;BME280;55510;49.560;19.090;2023-04-24T09:11:56;95452.94;;;16.61;42.10
68508;BME280;55510;49.560;19.090;2023-04-24T09:14:58;95449.88;;;16.77;41.86
68508;BME280;55510;49.560;19.090;2023-04-24T09:17:59;95459.56;;;17.01;42.43
68508;BME280;55510;49.560;19.090;2023-04-24T09:21:06;95463.66;;;17.30;41.65
68508;BME280;55510;49.560;19.090;2023-04-24T09:24:14;95452.00;;;17.43;43.44
68508;BME280;55510;49.560;19.090;2023-04-24T09:27:18;95461.75;;;16.99;40.66
68508;BME280;55510;49.560;19.090;2023-04-24T09:30:21;95461.63;;;16.81;44.49
68508;BME280;55510;49.560;19.090;2023-04-24T09:33:23;95469.34;;;16.37;42.34
68508;BME280;55510;49.560;19.090;2023-04-24T09:39:34;95475.69;;;15.76;45.20
68508;BME280;55510;49.560;19.090;2023-04-24T09:42:35;95466.94;;;15.29;47.18
68508;BME280;55510;49.560;19.090;2023-04-24T09:45:37;95481.88;;;15.16;47.03
68508;BME280;55510;49.560;19.090;2023-04-24T09:48:38;95474.59;;;14.88;49.83
68508;BME280;55510;49.560;19.090;2023-04-24T09:51:39;95476.44;;;14.74;50.72
68508;BME280;55510;49.560;19.090;2023-04-24T09:54:40;95472.44;;;14.52;52.93
68508;BME280;55510;49.560;19.090;2023-04-24T09:57:49;95476.72;;;14.53;54.69
68508;BME280;55510;49.560;19.090;2023-04-24T10:00:53;95479.34;;;14.39;53.51
68508;BME280;55510;49.560;19.090;2023-04-24T10:03:54;95488.31;;;14.29;53.71
68508;BME280;55510;49.560;19.090;2023-04-24T10:06:56;95480.34;;;14.24;56.14
68508;BME280;55510;49.560;19.090;2023-04-24T10:09:58;95478.34;;;14.16;56.58
68508;BME280;55510;49.560;19.090;2023-04-24T10:13:00;95479.47;;;14.10;57.48
68508;BME280;55510;49.560;19.090;2023-04-24T10:16:01;95477.72;;;14.00;58.34
68508;BME280;55510;49.560;19.090;2023-04-24T10:19:03;95484.50;;;13.92;59.84
68508;BME280;55510;49.560;19.090;2023-04-24T10:22:05;95483.56;;;13.83;60.09
68508;BME280;55510;49.560;19.090;2023-04-24T10:25:07;95481.78;;;13.73;61.77
68508;BME280;55510;49.560;19.090;2023-04-24T10:28:09;95487.66;;;13.75;63.40
68508;BME280;55510;49.560;19.090;2023-04-24T10:31:10;95488.53;;;13.70;62.42
68508;BME280;55510;49.560;19.090;2023-04-24T10:34:13;95483.19;;;13.70;64.13
68508;BME280;55510;49.560;19.090;2023-04-24T10:37:15;95488.81;;;13.69;63.31
68508;BME280;55510;49.560;19.090;2023-04-24T10:40:18;95484.22;;;13.69;62.99
68508;BME280;55510;49.560;19.090;2023-04-24T10:43:19;95482.38;;;13.70;63.22
68508;BME280;55510;49.560;19.090;2023-04-24T10:46:20;95490.31;;;13.75;63.47
68508;BME280;55510;49.560;19.090;2023-04-24T10:49:31;95489.75;;;13.78;66.78
68508;BME280;55510;49.560;19.090;2023-04-24T10:52:52;95478.47;;;13.81;66.25
68508;BME280;55510;49.560;19.090;2023-04-24T10:56:05;95480.38;;;13.81;67.91
68508;BME280;55510;49.560;19.090;2023-04-24T10:59:07;95483.56;;;13.83;64.36
68508;BME280;55510;49.560;19.090;2023-04-24T11:02:10;95476.63;;;13.82;60.55
68508;BME280;55510;49.560;19.090;2023-04-24T11:05:10;95475.53;;;13.83;59.14
68508;BME280;55510;49.560;19.090;2023-04-24T11:08:13;95490.38;;;13.94;57.23
68508;BME280;55510;49.560;19.090;2023-04-24T11:11:16;95491.44;;;13.93;54.05
68508;BME280;55510;49.560;19.090;2023-04-24T11:14:17;95478.59;;;13.95;55.33
68508;BME280;55510;49.560;19.090;2023-04-24T11:17:38;95495.84;;;13.84;53.25
68508;BME280;55510;49.560;19.090;2023-04-24T11:20:44;95489.41;;;13.85;54.64
68508;BME280;55510;49.560;19.090;2023-04-24T11:23:45;95505.00;;;13.77;53.49
68508;BME280;55510;49.560;19.090;2023-04-24T11:26:47;95498.59;;;13.78;55.36
68508;BME280;55510;49.560;19.090;2023-04-24T11:32:50;95486.50;;;13.81;54.95
68508;BME280;55510;49.560;19.090;2023-04-24T11:35:51;95502.09;;;13.74;57.08
68508;BME280;55510;49.560;19.090;2023-04-24T11:38:52;95496.13;;;13.82;57.32
68508;BME280;55510;49.560;19.090;2023-04-24T11:41:53;95499.09;;;13.81;55.78
68508;BME280;55510;49.560;19.090;2023-04-24T11:45:10;95508.34;;;13.64;56.14
68508;BME280;55510;49.560;19.090;2023-04-24T11:48:11;95507.25;;;13.41;58.82
68508;BME280;55510;49.560;19.090;2023-04-24T11:51:13;95524.75;;;13.28;58.67
68508;BME280;55510;49.560;19.090;2023-04-24T11:54:14;95516.34;;;13.10;61.16
68508;BME280;55510;49.560;19.090;2023-04-24T11:57:14;95518.06;;;12.96;62.64
68508;BME280;55510;49.560;19.090;2023-04-24T12:00:16;95518.13;;;12.90;63.83
68508;BME280;55510;49.560;19.090;2023-04-24T12:03:17;95512.75;;;12.61;69.34
68508;BME280;55510;49.560;19.090;2023-04-24T12:06:18;95511.06;;;12.25;70.15
68508;BME280;55510;49.560;19.090;2023-04-24T12:09:19;95508.78;;;11.98;75.45
68508;BME280;55510;49.560;19.090;2023-04-24T12:12:20;95524.00;;;11.92;77.21
68508;BME280;55510;49.560;19.090;2023-04-24T12:15:21;95520.09;;;11.69;79.41
68508;BME280;55510;49.560;19.090;2023-04-24T12:18:23;95524.34;;;11.75;80.78
68508;BME280;55510;49.560;19.090;2023-04-24T12:21:24;95508.91;;;11.72;80.29
68508;BME280;55510;49.560;19.090;2023-04-24T12:24:29;95507.06;;;11.62;80.49
68508;BME280;55510;49.560;19.090;2023-04-24T12:27:31;95513.50;;;11.40;81.22
68508;BME280;55510;49.560;19.090;2023-04-24T12:30:35;95507.63;;;11.54;81.81
68508;BME280;55510;49.560;19.090;2023-04-24T12:33:36;95510.81;;;11.56;82.94
68508;BME280;55510;49.560;19.090;2023-04-24T12:36:37;95500.16;;;11.56;84.06
68508;BME280;55510;49.560;19.090;2023-04-24T12:39:38;95504.41;;;11.62;83.91
68508;BME280;55510;49.560;19.090;2023-04-24T12:42:44;95499.63;;;11.59;83.85
68508;BME280;55510;49.560;19.090;2023-04-24T12:45:48;95495.91;;;11.44;85.16
68508;BME280;55510;49.560;19.090;2023-04-24T12:48:49;95501.78;;;11.36;86.46
68508;BME280;55510;49.560;19.090;2023-04-24T12:51:49;95493.25;;;11.39;85.98
68508;BME280;55510;49.560;19.090;2023-04-24T12:54:50;95499.13;;;11.41;85.42
68508;BME280;55510;49.560;19.090;2023-04-24T12:57:51;95497.50;;;11.45;85.88
68508;BME280;55510;49.560;19.090;2023-04-24T13:00:53;95495.38;;;11.42;87.32
68508;BME280;55510;49.560;19.090;2023-04-24T13:03:54;95486.06;;;11.45;86.76
68508;BME280;55510;49.560;19.090;2023-04-24T13:06:55;95485.84;;;11.26;87.81
68508;BME280;55510;49.560;19.090;2023-04-24T13:09:56;95486.94;;;11.14;85.12
68508;BME280;55510;49.560;19.090;2023-04-24T13:12:59;95484.53;;;11.08;84.91
68508;BME280;55510;49.560;19.090;2023-04-24T13:16:00;95479.19;;;11.23;83.93
68508;BME280;55510;49.560;19.090;2023-04-24T13:19:00;95478.91;;;11.25;86.53
68508;BME280;55510;49.560;19.090;2023-04-24T13:22:01;95470.16;;;11.14;89.16
68508;BME280;55510;49.560;19.090;2023-04-24T13:25:02;95474.69;;;11.19;87.98
68508;BME280;55510;49.560;19.090;2023-04-24T13:28:03;95464.53;;;11.26;86.96
68508;BME280;55510;49.560;19.090;2023-04-24T13:31:04;95468.25;;;11.30;87.38
68508;BME280;55510;49.560;19.090;2023-04-24T13:34:05;95458.94;;;11.32;89.58
68508;BME280;55510;49.560;19.090;2023-04-24T13:37:06;95464.00;;;11.29;90.41
68508;BME280;55510;49.560;19.090;2023-04-24T13:40:08;95461.06;;;11.20;87.15
68508;BME280;55510;49.560;19.090;2023-04-24T13:43:09;95450.72;;;11.03;86.42
68508;BME280;55510;49.560;19.090;2023-04-24T13:46:10;95450.75;;;10.98;85.30
68508;BME280;55510;49.560;19.090;2023-04-24T13:49:12;95447.03;;;10.94;86.73
68508;BME280;55510;49.560;19.090;2023-04-24T13:52:13;95449.16;;;10.92;87.83
68508;BME280;55510;49.560;19.090;2023-04-24T13:55:14;95443.03;;;10.91;87.66
68508;BME280;55510;49.560;19.090;2023-04-24T13:58:15;95441.44;;;10.90;88.28
68508;BME280;55510;49.560;19.090;2023-04-24T14:01:16;95443.31;;;10.90;87.89
68508;BME280;55510;49.560;19.090;2023-04-24T14:04:17;95434.25;;;10.91;88.48
68508;BME280;55510;49.560;19.090;2023-04-24T14:07:17;95439.03;;;10.94;89.20
68508;BME280;55510;49.560;19.090;2023-04-24T14:10:18;95440.63;;;10.95;88.74
68508;BME280;55510;49.560;19.090;2023-04-24T14:13:19;95442.50;;;10.94;89.78
68508;BME280;55510;49.560;19.090;2023-04-24T14:16:20;95437.97;;;10.95;89.63
68508;BME280;55510;49.560;19.090;2023-04-24T14:19:21;95436.91;;;10.96;89.35
68508;BME280;55510;49.560;19.090;2023-04-24T14:22:22;95434.00;;;10.92;90.47
68508;BME280;55510;49.560;19.090;2023-04-24T14:25:23;95430.28;;;10.88;89.43
68508;BME280;55510;49.560;19.090;2023-04-24T14:28:24;95433.19;;;10.86;89.79
68508;BME280;55510;49.560;19.090;2023-04-24T14:31:25;95435.31;;;10.90;90.08
68508;BME280;55510;49.560;19.090;2023-04-24T14:34:25;95431.59;;;10.91;90.31
68508;BME280;55510;49.560;19.090;2023-04-24T14:37:26;95433.47;;;10.95;91.25
68508;BME280;55510;49.560;19.090;2023-04-24T14:40:30;95426.78;;;10.98;91.63
68508;BME280;55510;49.560;19.090;2023-04-24T14:43:31;95427.84;;;11.02;92.19
68508;BME280;55510;49.560;19.090;2023-04-24T14:46:32;95426.50;;;11.05;92.63
68508;BME280;55510;49.560;19.090;2023-04-24T14:49:33;95420.38;;;11.04;93.11
68508;BME280;55510;49.560;19.090;2023-04-24T14:52:34;95424.09;;;11.03;92.60
68508;BME280;55510;49.560;19.090;2023-04-24T14:55:36;95427.06;;;11.01;92.82
68508;BME280;55510;49.560;19.090;2023-04-24T14:58:37;95425.47;;;11.00;92.95
68508;BME280;55510;49.560;19.090;2023-04-24T15:01:38;95424.13;;;10.98;93.90
68508;BME280;55510;49.560;19.090;2023-04-24T15:04:38;95423.59;;;10.96;92.95
68508;BME280;55510;49.560;19.090;2023-04-24T15:07:39;95428.38;;;10.99;93.19
68508;BME280;55510;49.560;19.090;2023-04-24T15:10:42;95429.44;;;11.03;93.79
68508;BME280;55510;49.560;19.090;2023-04-24T15:13:43;95429.97;;;11.00;93.65
68508;BME280;55510;49.560;19.090;2023-04-24T15:16:46;95427.84;;;10.97;93.63
68508;BME280;55510;49.560;19.090;2023-04-24T15:19:47;95424.66;;;10.90;93.91
68508;BME280;55510;49.560;19.090;2023-04-24T15:22:47;95426.81;;;10.87;94.47
68508;BME280;55510;49.560;19.090;2023-04-24T15:25:48;95420.94;;;10.85;95.10
68508;BME280;55510;49.560;19.090;2023-04-24T15:28:49;95426.28;;;10.80;95.12
68508;BME280;55510;49.560;19.090;2023-04-24T15:31:50;95425.78;;;10.73;95.34
68508;BME280;55510;49.560;19.090;2023-04-24T15:34:50;95427.09;;;10.70;95.61
68508;BME280;55510;49.560;19.090;2023-04-24T15:37:51;95422.31;;;10.67;95.58
68508;BME280;55510;49.560;19.090;2023-04-24T15:40:52;95422.31;;;10.62;96.51
68508;BME280;55510;49.560;19.090;2023-04-24T15:43:53;95423.63;;;10.59;96.73
68508;BME280;55510;49.560;19.090;2023-04-24T15:46:54;95416.22;;;10.62;97.25
68508;BME280;55510;49.560;19.090;2023-04-24T15:49:57;95412.72;;;10.61;97.16
68508;BME280;55510;49.560;19.090;2023-04-24T15:52:58;95408.22;;;10.62;97.59
68508;BME280;55510;49.560;19.090;2023-04-24T15:55:58;95406.09;;;10.64;97.37
68508;BME280;55510;49.560;19.090;2023-04-24T15:58:59;95407.94;;;10.68;97.29